createdAt,value
2016-06-15T00:00:24.518Z,99.99
2016-06-15T00:01:24.553Z,99.99
2016-06-15T00:02:24.556Z,99.99
2016-06-15T00:03:24.591Z,99.99
2016-06-15T00:04:24.625Z,99.99
2016-06-15T00:05:24.612Z,99.99
2016-06-15T00:06:24.631Z,99.99
2016-06-15T00:07:24.650Z,99.99
2016-06-15T00:08:44.012Z,99.99
2016-06-15T00:09:27.968Z,99.99
2016-06-15T00:10:28.003Z,99.99
2016-06-15T00:11:28.021Z,99.99
2016-06-15T00:12:28.056Z,99.99
2016-06-15T00:13:28.058Z,99.99
2016-06-15T00:14:28.093Z,99.99
2016-06-15T00:15:47.300Z,99.99
2016-06-15T00:16:28.162Z,99.99
2016-06-15T00:17:53.806Z,99.99
2016-06-15T00:18:47.355Z,99.99
2016-06-15T00:19:28.202Z,99.99
2016-06-15T00:20:28.236Z,99.99
2016-06-15T00:21:47.428Z,99.99
2016-06-15T00:22:31.399Z,99.99
2016-06-15T00:23:31.418Z,99.99
2016-06-15T00:24:34.467Z,99.99
2016-06-15T00:25:57.159Z,99.99
2016-06-15T00:26:31.473Z,99.99
2016-06-15T00:27:31.587Z,99.99
2016-06-15T00:28:31.495Z,99.99
2016-06-15T00:29:31.546Z,99.99
2016-06-15T00:30:31.532Z,99.99
2016-06-15T00:31:44.286Z,99.99
2016-06-15T00:32:31.570Z,99.99
2016-06-15T00:33:57.308Z,99.99
2016-06-15T00:34:41.279Z,99.99
2016-06-15T00:35:41.282Z,99.99
2016-06-15T00:36:44.427Z,99.99
2016-06-15T00:37:41.320Z,99.99
2016-06-15T00:38:41.338Z,99.99
2016-06-15T00:39:41.358Z,99.99
2016-06-15T00:40:44.502Z,99.99
2016-06-15T00:41:41.394Z,99.99
2016-06-15T00:42:41.414Z,99.99
2016-06-15T00:43:54.167Z,99.99
2016-06-15T00:44:41.451Z,99.99
2016-06-15T00:45:41.485Z,99.99
2016-06-15T00:46:50.941Z,99.99
2016-06-15T00:47:51.116Z,99.99
2016-06-15T00:48:51.213Z,99.99
2016-06-15T00:49:51.169Z,99.99
2016-06-15T00:50:51.203Z,99.99
2016-06-15T00:51:51.207Z,99.99
2016-06-15T00:52:51.225Z,99.99
2016-06-15T00:53:51.245Z,99.99
2016-06-15T00:54:51.263Z,99.99
2016-06-15T00:55:54.313Z,99.99
2016-06-15T00:56:51.347Z,99.99
2016-06-15T00:57:51.366Z,99.99
2016-06-15T00:58:51.384Z,99.99
2016-06-15T00:59:51.423Z,99.99
2016-06-15T01:01:04.213Z,99.99
2016-06-15T01:01:51.549Z,99.99
2016-06-15T01:02:51.588Z,99.99
2016-06-15T01:03:51.625Z,99.99
2016-06-15T01:04:51.672Z,99.99
2016-06-15T01:05:52.235Z,99.99
2016-06-15T01:06:51.720Z,99.99
2016-06-15T01:07:51.751Z,99.99
2016-06-15T01:08:51.760Z,99.99
2016-06-15T01:09:51.644Z,99.99
2016-06-15T01:11:04.605Z,99.99
2016-06-15T01:11:51.848Z,99.99
2016-06-15T01:12:51.871Z,99.99
2016-06-15T01:14:04.642Z,99.99
2016-06-15T01:14:51.912Z,99.99
2016-06-15T01:16:17.625Z,99.99
2016-06-15T01:17:11.145Z,99.99
2016-06-15T01:18:52.009Z,99.99
2016-06-15T01:19:52.028Z,99.99
2016-06-15T01:21:04.797Z,99.99
2016-06-15T01:21:52.067Z,99.99
2016-06-15T01:22:52.086Z,99.99
2016-06-15T01:23:53.527Z,99.99
2016-06-15T01:25:04.858Z,99.99
2016-06-15T01:25:52.158Z,99.99
2016-06-15T01:26:52.161Z,99.99
2016-06-15T01:27:52.196Z,99.99
2016-06-15T01:29:23.483Z,99.99
2016-06-15T01:30:01.858Z,99.99
2016-06-15T01:31:01.860Z,99.99
2016-06-15T01:32:01.911Z,99.99
2016-06-15T01:33:01.913Z,99.99
2016-06-15T01:34:01.933Z,99.99
2016-06-15T01:35:21.158Z,99.99
2016-06-15T01:36:01.955Z,99.99
2016-06-15T01:38:17.292Z,99.99
2016-06-15T01:39:17.248Z,99.99
2016-06-15T01:40:17.313Z,99.99
2016-06-15T01:41:17.285Z,99.99
2016-06-15T01:42:17.304Z,99.99
2016-06-15T01:43:17.322Z,99.99
2016-06-15T01:44:17.358Z,99.99
2016-06-15T01:45:30.094Z,99.99
2016-06-15T01:46:17.394Z,99.99
2016-06-15T01:47:17.428Z,99.99
2016-06-15T01:48:17.432Z,99.99
2016-06-15T01:49:17.451Z,99.99
2016-06-15T01:50:17.297Z,99.99
2016-06-15T01:51:17.535Z,99.99
2016-06-15T01:52:17.491Z,99.99
2016-06-15T01:53:17.525Z,99.99
2016-06-15T01:54:17.528Z,99.99
2016-06-15T01:55:17.547Z,99.99
2016-06-15T01:56:17.565Z,99.99
2016-06-15T01:57:36.787Z,99.99
2016-06-15T01:58:17.603Z,99.99
2016-06-15T01:59:43.325Z,99.99
2016-06-15T02:00:17.672Z,99.99
2016-06-15T02:01:17.675Z,99.99
2016-06-15T02:02:27.288Z,99.99
2016-06-15T02:03:27.337Z,99.99
2016-06-15T02:04:27.340Z,99.99
2016-06-15T02:05:40.937Z,99.99
2016-06-15T02:06:40.112Z,99.99
2016-06-15T02:07:49.646Z,99.99
2016-06-15T02:08:27.431Z,99.99
2016-06-15T02:09:27.449Z,99.99
2016-06-15T02:10:27.515Z,99.99
2016-06-15T02:11:27.472Z,99.99
2016-06-15T02:12:27.522Z,99.99
2016-06-15T02:13:27.525Z,99.99
2016-06-15T02:14:40.309Z,99.99
2016-06-15T02:15:27.562Z,99.99
2016-06-15T02:16:53.237Z,99.99
2016-06-15T02:17:37.209Z,99.99
2016-06-15T02:18:37.212Z,99.99
2016-06-15T02:19:37.246Z,99.99
2016-06-15T02:20:37.405Z,99.99
2016-06-15T02:21:37.283Z,99.99
2016-06-15T02:22:44.818Z,99.99
2016-06-15T02:23:37.320Z,99.99
2016-06-15T02:24:37.324Z,99.99
2016-06-15T02:25:37.404Z,99.99
2016-06-15T02:26:56.564Z,99.99
2016-06-15T02:27:37.395Z,99.99
2016-06-15T02:28:37.399Z,99.99
2016-06-15T02:29:37.416Z,99.99
2016-06-15T02:30:37.452Z,99.99
2016-06-15T02:31:37.454Z,99.99
2016-06-15T02:32:37.489Z,99.99
2016-06-15T02:33:37.508Z,99.99
2016-06-15T02:34:50.276Z,99.99
2016-06-15T02:35:50.639Z,99.99
2016-06-15T02:36:56.767Z,99.99
2016-06-15T02:37:40.738Z,99.99
2016-06-15T02:38:40.757Z,99.99
2016-06-15T02:39:42.197Z,99.99
2016-06-15T02:40:53.529Z,99.99
2016-06-15T02:41:40.829Z,99.99
2016-06-15T02:42:40.831Z,99.99
2016-06-15T02:44:56.135Z,99.99
2016-06-15T02:45:56.154Z,99.99
2016-06-15T02:47:08.926Z,99.99
2016-06-15T02:47:56.207Z,99.99
2016-06-15T02:49:21.885Z,99.99
2016-06-15T02:50:05.838Z,99.99
2016-06-15T02:51:05.873Z,99.99
2016-06-15T02:52:05.922Z,99.99
2016-06-15T02:53:31.584Z,99.99
2016-06-15T02:54:15.541Z,99.99
2016-06-15T02:55:41.247Z,99.99
2016-06-15T02:56:15.579Z,99.99
2016-06-15T02:57:15.612Z,99.99
2016-06-15T02:58:34.850Z,99.99
2016-06-15T02:59:28.399Z,99.99
2016-06-15T03:01:15.687Z,99.99
2016-06-15T03:02:15.707Z,99.99
2016-06-15T03:03:15.709Z,99.99
2016-06-15T03:04:28.478Z,99.99
2016-06-15T03:05:28.512Z,99.99
2016-06-15T03:06:41.438Z,99.99
2016-06-15T03:07:38.128Z,99.99
2016-06-15T03:08:50.881Z,99.99
2016-06-15T03:09:38.165Z,99.99
2016-06-15T03:10:38.199Z,99.99
2016-06-15T03:11:41.234Z,99.99
2016-06-15T03:12:50.956Z,99.99
2016-06-15T03:13:51.037Z,99.99
2016-06-15T03:15:03.930Z,99.99
2016-06-15T03:15:38.371Z,99.99
2016-06-15T03:16:38.296Z,99.99
2016-06-15T03:17:41.347Z,99.99
2016-06-15T03:18:38.364Z,99.99
2016-06-15T03:19:55.039Z,99.99
2016-06-15T03:20:53.652Z,99.99
2016-06-15T03:21:53.639Z,99.99
2016-06-15T03:22:53.658Z,99.99
2016-06-15T03:24:24.976Z,99.99
2016-06-15T03:25:06.445Z,99.99
2016-06-15T03:25:53.730Z,99.99
2016-06-15T03:27:25.033Z,99.99
2016-06-15T03:28:40.286Z,99.99
2016-06-15T03:29:09.023Z,99.99
2016-06-15T03:30:09.026Z,99.99
2016-06-15T03:31:21.826Z,99.99
2016-06-15T03:32:09.064Z,99.99
2016-06-15T03:33:21.832Z,99.99
2016-06-15T03:34:09.117Z,99.99
2016-06-15T03:35:34.916Z,99.99
2016-06-15T03:36:22.764Z,99.99
2016-06-15T03:37:38.173Z,99.99
2016-06-15T03:38:31.848Z,99.99
2016-06-15T03:39:50.289Z,99.99
2016-06-15T03:40:50.307Z,99.99
2016-06-15T03:41:22.201Z,99.99
2016-06-15T03:43:22.223Z,99.99
2016-06-15T03:44:22.241Z,99.99
2016-06-15T03:45:22.308Z,99.99
2016-06-15T03:46:35.013Z,99.99
2016-06-15T03:47:22.314Z,99.99
2016-06-15T03:48:48.050Z,99.99
2016-06-15T03:49:33.429Z,99.99
2016-06-15T03:50:31.869Z,99.99
2016-06-15T03:51:35.107Z,99.99
2016-06-15T03:52:33.484Z,99.99
2016-06-15T03:53:44.832Z,99.99
2016-06-15T03:54:31.974Z,99.99
2016-06-15T03:56:47.372Z,99.99
2016-06-15T03:57:47.469Z,99.99
2016-06-15T03:58:47.441Z,99.99
2016-06-15T03:59:50.490Z,99.99
2016-06-15T04:02:03.982Z,99.99
2016-06-15T04:03:03.390Z,99.99
2016-06-15T04:04:29.099Z,99.99
2016-06-15T04:05:06.521Z,99.99
2016-06-15T04:06:03.462Z,99.99
2016-06-15T04:07:03.465Z,99.99
2016-06-15T04:08:11.175Z,99.99
2016-06-15T04:09:03.378Z,99.99
2016-06-15T04:10:03.568Z,99.99
2016-06-15T04:11:18.871Z,99.99
2016-06-15T04:12:18.890Z,99.99
2016-06-15T04:13:18.908Z,99.99
2016-06-15T04:14:31.677Z,99.99
2016-06-15T04:15:20.353Z,99.99
2016-06-15T04:16:44.636Z,99.99
2016-06-15T04:17:31.734Z,99.99
2016-06-15T04:19:59.912Z,99.99
2016-06-15T04:20:34.649Z,99.99
2016-06-15T04:22:48.374Z,99.99
2016-06-15T04:23:47.049Z,99.99
2016-06-15T04:24:56.553Z,99.99
2016-06-15T04:26:06.055Z,99.99
2016-06-15T04:27:31.764Z,99.99
2016-06-15T04:28:15.737Z,99.99
2016-06-15T04:29:15.755Z,99.99
2016-06-15T04:30:18.946Z,99.99
2016-06-15T04:31:18.964Z,99.99
2016-06-15T04:32:28.342Z,99.99
2016-06-15T04:33:47.673Z,99.99
2016-06-15T04:34:22.020Z,99.99
2016-06-15T04:35:22.039Z,99.99
2016-06-15T04:36:44.448Z,99.99
2016-06-15T04:37:31.748Z,99.99
2016-06-15T04:38:57.423Z,99.99
2016-06-15T04:39:44.379Z,99.99
2016-06-15T04:41:03.711Z,99.99
2016-06-15T04:41:44.510Z,99.99
2016-06-15T04:43:10.172Z,99.99
2016-06-15T04:43:55.625Z,99.99
2016-06-15T04:45:13.350Z,99.99
2016-06-15T04:45:57.303Z,99.99
2016-06-15T04:47:25.481Z,99.99
2016-06-15T04:48:09.294Z,99.99
2016-06-15T04:49:28.363Z,99.99
2016-06-15T04:50:16.819Z,99.99
2016-06-15T04:51:20.478Z,99.99
2016-06-15T04:53:33.141Z,99.99
2016-06-15T04:54:33.144Z,99.99
2016-06-15T04:55:58.865Z,99.99
2016-06-15T04:56:50.400Z,99.99
2016-06-15T04:57:44.216Z,99.99
2016-06-15T04:58:44.187Z,99.99
2016-06-15T05:00:12.177Z,99.99
2016-06-15T05:01:12.213Z,99.99
2016-06-15T05:02:12.231Z,99.99
2016-06-15T05:03:13.672Z,96.85
2016-06-15T05:04:31.487Z,93.08
2016-06-15T05:05:37.975Z,87.53
2016-06-15T05:06:39.196Z,84
2016-06-15T05:08:43.656Z,70.14
2016-06-15T05:09:53.268Z,64.69
2016-06-15T05:10:53.287Z,62.72
2016-06-15T05:13:03.762Z,65.82
2016-06-15T05:14:07.000Z,69.32
2016-06-15T05:15:16.709Z,69.1
2016-06-15T05:16:42.352Z,69.07
2016-06-15T05:17:57.605Z,66.24
2016-06-15T05:19:07.296Z,64.47
2016-06-15T05:19:41.644Z,62.92
2016-06-15T05:20:44.724Z,61.76
2016-06-15T05:21:49.415Z,61.11
2016-06-15T05:23:14.421Z,60.08
2016-06-15T05:23:58.671Z,59.11
2016-06-15T05:25:24.115Z,58.27
2016-06-15T05:26:07.927Z,57.59
2016-06-15T05:27:33.636Z,56.94
2016-06-15T05:28:48.889Z,54.35
2016-06-15T05:29:48.939Z,50.07
2016-06-15T05:31:08.192Z,47.88
2016-06-15T05:31:48.992Z,46.2
2016-06-15T05:33:14.686Z,43.11
2016-06-15T05:33:49.029Z,42.08
2016-06-15T05:36:04.411Z,41.71
2016-06-15T05:37:29.948Z,40.56
2016-06-15T05:38:39.607Z,39.39
2016-06-15T05:39:23.563Z,38.94
2016-06-15T05:42:46.167Z,38.2
2016-06-15T05:43:33.481Z,38.75
2016-06-15T05:45:43.129Z,44.38
2016-06-15T05:47:14.463Z,46.3
2016-06-15T05:47:43.197Z,46.57
2016-06-15T05:48:43.201Z,46.18
2016-06-15T05:49:58.453Z,46.57
2016-06-15T05:50:58.503Z,48.3
2016-06-15T05:51:58.522Z,49.34
2016-06-15T05:53:11.276Z,51.53
2016-06-15T05:54:24.251Z,52.25
2016-06-15T05:55:21.003Z,51.69
2016-06-15T05:56:27.491Z,50.36
2016-06-15T05:57:08.319Z,49.71
2016-06-15T05:59:54.875Z,50.84
2016-06-15T06:00:54.909Z,50.74
2016-06-15T06:01:54.928Z,52.37
2016-06-15T06:03:14.168Z,53.02
2016-06-15T06:04:07.746Z,53.87
2016-06-15T06:06:33.052Z,53.31
2016-06-15T06:07:13.869Z,53.22
2016-06-15T06:08:40.997Z,51.4
2016-06-15T06:09:50.655Z,50.19
2016-06-15T06:10:34.518Z,46.67
2016-06-15T06:12:00.224Z,45.72
2016-06-15T06:13:15.544Z,45.18
2016-06-15T06:14:15.515Z,43.81
2016-06-15T06:15:15.581Z,43.33
2016-06-15T06:16:28.302Z,43.13
2016-06-15T06:17:15.650Z,44.69
2016-06-15T06:18:41.417Z,45.94
2016-06-15T06:19:25.374Z,46.55
2016-06-15T06:20:25.409Z,48.66
2016-06-15T06:21:25.599Z,50.56
2016-06-15T06:22:25.477Z,51.28
2016-06-15T06:23:38.261Z,54.16
2016-06-15T06:24:38.280Z,55.46
2016-06-15T06:25:44.752Z,57.86
2016-06-15T06:26:44.802Z,58.8
2016-06-15T06:27:56.914Z,61.37
2016-06-15T06:28:53.636Z,62.31
2016-06-15T06:30:06.577Z,64.72
2016-06-15T06:32:22.101Z,66.11
2016-06-15T06:33:22.246Z,66.69
2016-06-15T06:34:34.795Z,66.56
2016-06-15T06:35:23.658Z,67.71
2016-06-15T06:37:37.319Z,69.42
2016-06-15T06:38:37.339Z,70.28
2016-06-15T06:39:37.373Z,70.38
2016-06-15T06:40:37.407Z,70.48
2016-06-15T06:41:37.535Z,69.9
2016-06-15T06:42:50.179Z,69.77
2016-06-15T06:44:03.416Z,70.19
2016-06-15T06:45:03.185Z,71.22
2016-06-15T06:45:37.564Z,71.15
2016-06-15T06:46:52.816Z,71.12
2016-06-15T06:47:52.976Z,71.31
2016-06-15T06:49:24.170Z,72.81
2016-06-15T06:50:07.966Z,73.78
2016-06-15T06:51:08.016Z,73.49
2016-06-15T06:52:08.035Z,73.49
2016-06-15T06:53:39.447Z,74.99
2016-06-15T06:54:23.388Z,75.76
2016-06-15T06:55:50.001Z,77.31
2016-06-15T06:56:33.675Z,76.92
2016-06-15T06:57:33.741Z,76.73
2016-06-15T06:58:46.478Z,77.31
2016-06-15T06:59:46.497Z,78.17
2016-06-15T07:00:59.469Z,78.46
2016-06-15T07:01:59.566Z,78.56
2016-06-15T07:02:33.881Z,78.27
2016-06-15T07:03:33.884Z,78.75
2016-06-15T07:04:48.981Z,79.13
2016-06-15T07:05:49.109Z,76.73
2016-06-15T07:06:49.034Z,76.34
2016-06-15T07:07:49.053Z,76.15
2016-06-15T07:08:50.509Z,76.44
2016-06-15T07:09:50.574Z,74.55
2016-06-15T07:10:52.671Z,74.65
2016-06-15T07:12:14.958Z,72.24
2016-06-15T07:13:08.380Z,72.81
2016-06-15T07:13:49.369Z,73.1
2016-06-15T07:14:49.339Z,74.07
2016-06-15T07:15:49.250Z,74.16
2016-06-15T07:16:50.737Z,71.89
2016-06-15T07:18:02.146Z,71.22
2016-06-15T07:18:49.384Z,71.31
2016-06-15T07:19:49.449Z,71.5
2016-06-15T07:21:02.171Z,72.43
2016-06-15T07:22:16.521Z,72.85
2016-06-15T07:22:49.458Z,74.01
2016-06-15T07:24:20.761Z,73.43
2016-06-15T07:24:58.980Z,73.43
2016-06-15T07:25:59.015Z,72.56
2016-06-15T07:26:59.017Z,73.05
2016-06-15T07:28:02.083Z,73.53
2016-06-15T07:29:02.118Z,72.56
2016-06-15T07:30:05.386Z,72.95
2016-06-15T07:31:05.405Z,73.24
2016-06-15T07:32:24.833Z,72.37
2016-06-15T07:33:34.461Z,72.24
2016-06-15T07:34:08.820Z,73.58
2016-06-15T07:35:37.545Z,75.61
2016-06-15T07:36:15.751Z,76.57
2016-06-15T07:37:16.020Z,76.92
2016-06-15T07:38:18.991Z,77.88
2016-06-15T07:39:28.713Z,78.46
2016-06-15T07:40:28.733Z,77.69
2016-06-15T07:42:45.660Z,75.65
2016-06-15T07:43:45.601Z,73.62
2016-06-15T07:44:58.182Z,74.01
2016-06-15T07:45:47.170Z,72.06
2016-06-15T07:47:11.329Z,69.97
2016-06-15T07:48:01.394Z,67.94
2016-06-15T07:49:01.444Z,67.55
2016-06-15T07:50:01.635Z,65.08
2016-06-15T07:51:01.638Z,63.5
2016-06-15T07:52:01.688Z,61.3
2016-06-15T07:53:32.991Z,61.4
2016-06-15T07:54:16.931Z,61.5
2016-06-15T07:55:16.982Z,60.05
2016-06-15T07:56:20.032Z,59.21
2016-06-15T07:57:20.050Z,57.98
2016-06-15T07:58:29.802Z,58.39
2016-06-15T07:59:42.760Z,56.07
2016-06-15T08:01:29.906Z,54.6
2016-06-15T08:02:29.940Z,53.27
2016-06-15T08:03:33.006Z,52.81
2016-06-15T08:04:29.993Z,53.27
2016-06-15T08:05:30.059Z,51.84
2016-06-15T08:06:32.938Z,51.57
2016-06-15T08:07:33.002Z,51.77
2016-06-15T08:08:42.850Z,54.9
2016-06-15T08:09:49.353Z,56.75
2016-06-15T08:10:50.027Z,58.82
2016-06-15T08:12:30.236Z,61.69
2016-06-15T08:13:30.256Z,62.53
2016-06-15T08:14:43.024Z,63.11
2016-06-15T08:15:30.324Z,62.95
2016-06-15T08:16:56.016Z,59.86
2016-06-15T08:17:39.986Z,59.79
2016-06-15T08:18:40.052Z,61.02
2016-06-15T08:19:52.774Z,61.6
2016-06-15T08:20:52.808Z,61.98
2016-06-15T08:21:53.796Z,61.53
2016-06-15T08:23:06.080Z,60.27
2016-06-15T08:23:43.193Z,61.15
2016-06-15T08:24:40.196Z,60.82
2016-06-15T08:25:40.230Z,61.3
2016-06-15T08:26:40.264Z,62.53
2016-06-15T08:27:43.299Z,63.98
2016-06-15T08:28:40.302Z,65.14
2016-06-15T08:29:59.648Z,61.5
2016-06-15T08:30:40.370Z,60.17
2016-06-15T08:31:40.389Z,61.05
2016-06-15T08:32:50.033Z,59.79
2016-06-15T08:34:15.739Z,58.95
2016-06-15T08:34:50.243Z,59.21
2016-06-15T08:35:50.136Z,60.08
2016-06-15T08:37:15.842Z,61.21
2016-06-15T08:37:59.814Z,60.34
2016-06-15T08:39:09.472Z,61.11
2016-06-15T08:41:19.123Z,61.3
2016-06-15T08:42:19.157Z,59.76
2016-06-15T08:43:19.191Z,59.66
2016-06-15T08:44:19.210Z,60.82
2016-06-15T08:45:38.495Z,60.14
2016-06-15T08:46:22.310Z,60.05
2016-06-15T08:48:30.441Z,61.57
2016-06-15T08:49:29.053Z,62.31
2016-06-15T08:50:41.823Z,63.47
2016-06-15T08:51:29.872Z,61.54
2016-06-15T08:52:30.157Z,61.83
2016-06-15T08:53:48.378Z,61.37
2016-06-15T08:55:00.475Z,61.44
2016-06-15T08:55:29.228Z,62.4
2016-06-15T08:56:29.263Z,61.92
2016-06-15T08:57:29.297Z,62.15
2016-06-15T08:58:29.316Z,61.57
2016-06-15T08:59:29.350Z,60.41
2016-06-15T09:00:48.572Z,62.89
2016-06-15T09:01:32.544Z,63.47
2016-06-15T09:03:00.344Z,65.56
2016-06-15T09:03:32.597Z,64.4
2016-06-15T09:05:47.853Z,64.43
2016-06-15T09:06:48.216Z,64.05
2016-06-15T09:08:19.203Z,63.56
2016-06-15T09:09:06.191Z,62.73
2016-06-15T09:10:06.225Z,63.11
2016-06-15T09:11:19.009Z,63.21
2016-06-15T09:12:06.278Z,61.95
2016-06-15T09:13:25.528Z,61.08
2016-06-15T09:14:15.638Z,61.18
2016-06-15T09:15:15.686Z,61.76
2016-06-15T09:16:34.924Z,62.08
2016-06-15T09:17:15.708Z,61.4
2016-06-15T09:18:41.447Z,61.02
2016-06-15T09:19:25.433Z,59.79
2016-06-15T09:20:25.467Z,60.37
2016-06-15T09:21:38.643Z,59.89
2016-06-15T09:22:25.645Z,59.31
2016-06-15T09:23:25.540Z,59.69
2016-06-15T09:24:59.890Z,59.79
2016-06-15T09:25:43.702Z,59.59
2016-06-15T09:27:02.927Z,59.82
2016-06-15T09:27:43.739Z,59.14
2016-06-15T09:29:15.072Z,59.82
2016-06-15T09:29:59.055Z,58.88
2016-06-15T09:30:59.089Z,58.72
2016-06-15T09:32:11.828Z,57.94
2016-06-15T09:32:59.237Z,58.23
2016-06-15T09:34:24.848Z,54.84
2016-06-15T09:35:08.649Z,54.96
2016-06-15T09:37:19.904Z,54.99
2016-06-15T09:38:19.939Z,52.76
2016-06-15T09:39:19.957Z,52.88
2016-06-15T09:40:21.414Z,52.98
2016-06-15T09:41:20.027Z,52.3
2016-06-15T09:42:20.030Z,50.94
2016-06-15T09:43:32.830Z,51.98
2016-06-15T09:44:32.833Z,52.08
2016-06-15T09:45:20.133Z,53.44
2016-06-15T09:47:35.295Z,53.05
2016-06-15T09:48:35.313Z,54.21
2016-06-15T09:49:54.569Z,53.92
2016-06-15T09:50:38.429Z,54.02
2016-06-15T09:52:07.279Z,54.5
2016-06-15T09:52:52.548Z,54.6
2016-06-15T09:54:16.847Z,53.31
2016-06-15T09:54:51.179Z,53.24
2016-06-15T09:56:22.510Z,52.37
2016-06-15T09:57:06.544Z,53.97
2016-06-15T09:58:06.516Z,53.29
2016-06-15T09:59:25.848Z,54.35
2016-06-15T10:00:22.553Z,53.87
2016-06-15T10:01:22.588Z,53
2016-06-15T10:02:35.403Z,53.49
2016-06-15T10:03:41.859Z,54.06
2016-06-15T10:04:25.819Z,54.55
2016-06-15T10:05:25.956Z,54.55
2016-06-15T10:06:25.952Z,52.15
2016-06-15T10:07:41.808Z,51.69
2016-06-15T10:08:41.319Z,50.07
2016-06-15T10:10:12.680Z,49.99
2016-06-15T10:10:56.665Z,49.99
2016-06-15T10:12:15.918Z,50.38
2016-06-15T10:13:12.654Z,49.22
2016-06-15T10:13:59.964Z,50.07
2016-06-15T10:15:19.191Z,51.98
2016-06-15T10:16:25.840Z,51.5
2016-06-15T10:17:47.802Z,51.21
2016-06-15T10:18:38.185Z,50.92
2016-06-15T10:19:38.067Z,51.98
2016-06-15T10:20:57.467Z,53.31
2016-06-15T10:21:47.811Z,53.51
2016-06-15T10:23:07.680Z,52.73
2016-06-15T10:25:22.532Z,50.82
2016-06-15T10:26:06.489Z,52.34
2016-06-15T10:27:06.507Z,53.99
2016-06-15T10:28:07.964Z,55.62
2016-06-15T10:29:27.187Z,55.13
2016-06-15T10:30:17.440Z,54.62
2016-06-15T10:31:30.365Z,54.91
2016-06-15T10:32:45.650Z,53.85
2016-06-15T10:33:33.590Z,53.49
2016-06-15T10:36:14.585Z,50.6
2016-06-15T10:37:21.683Z,52.12
2016-06-15T10:38:23.325Z,52.51
2016-06-15T10:39:32.172Z,53.49
2016-06-15T10:40:49.785Z,53
2016-06-15T10:42:06.166Z,52.93
2016-06-15T10:42:55.619Z,50.87
2016-06-15T10:44:20.485Z,52.32
2016-06-15T10:44:57.891Z,54.81
2016-06-15T10:45:56.878Z,55.3
2016-06-15T10:47:15.728Z,52.68
2016-06-15T10:48:36.544Z,52.22
2016-06-15T10:49:25.938Z,53.07
2016-06-15T10:50:23.973Z,52.58
2016-06-15T10:52:25.400Z,53.36
2016-06-15T10:53:25.216Z,51.2
2016-06-15T10:54:48.031Z,52.92
2016-06-15T10:55:51.409Z,56.02
2016-06-15T10:58:09.759Z,54.39
2016-06-15T10:59:09.793Z,53.81
2016-06-15T11:00:35.488Z,56.04
2016-06-15T11:01:19.288Z,54.69
2016-06-15T11:02:38.681Z,54.69
2016-06-15T11:03:28.778Z,53.81
2016-06-15T11:04:41.734Z,51.68
2016-06-15T11:06:00.972Z,51.56
2016-06-15T11:06:48.257Z,51.86
2016-06-15T11:08:07.525Z,55.41
2016-06-15T11:10:09.860Z,55.09
2016-06-15T11:10:38.096Z,54.41
2016-06-15T11:11:38.131Z,52.99
2016-06-15T11:12:39.556Z,54.63
2016-06-15T11:13:50.919Z,55.63
2016-06-15T11:14:38.264Z,51.5
2016-06-15T11:15:38.237Z,50.14
2016-06-15T11:16:39.678Z,49.97
2016-06-15T11:18:14.118Z,51.74
2016-06-15T11:18:48.888Z,52.12
2016-06-15T11:20:20.691Z,50.29
2016-06-15T11:21:04.487Z,51.76
2016-06-15T11:22:23.946Z,51.18
2016-06-15T11:23:20.745Z,50.12
2016-06-15T11:24:20.703Z,50.6
2016-06-15T11:25:20.751Z,50.14
2016-06-15T11:26:20.771Z,46.55
2016-06-15T11:27:22.274Z,47.69
2016-06-15T11:28:20.823Z,48.83
2016-06-15T11:29:20.858Z,49
2016-06-15T11:30:33.596Z,50.07
2016-06-15T11:31:46.583Z,52.36
2016-06-15T11:32:43.289Z,51.3
2016-06-15T11:33:49.776Z,53.04
2016-06-15T11:35:59.299Z,54.71
2016-06-15T11:38:14.585Z,51.81
2016-06-15T11:39:14.729Z,49.46
2016-06-15T11:40:24.438Z,49.95
2016-06-15T11:41:24.567Z,50.43
2016-06-15T11:42:43.633Z,49.37
2016-06-15T11:43:24.511Z,49.87
2016-06-15T11:44:24.498Z,50.07
2016-06-15T11:45:24.673Z,48.83
2016-06-15T11:46:25.005Z,46.41
2016-06-15T11:47:24.601Z,47.47
2016-06-15T11:48:24.713Z,50.19
2016-06-15T11:49:24.623Z,49.97
2016-06-15T11:50:50.344Z,49.95
2016-06-15T11:51:40.411Z,50.43
2016-06-15T11:52:53.195Z,50.52
2016-06-15T11:54:11.760Z,48.71
2016-06-15T11:54:55.732Z,49.19
2016-06-15T11:56:14.953Z,49.39
2016-06-15T11:57:11.754Z,49.1
2016-06-15T11:57:59.038Z,49.1
2016-06-15T12:01:40.832Z,50.33
2016-06-15T12:04:37.763Z,50.52
2016-06-15T12:05:25.031Z,51.59
2016-06-15T12:06:50.738Z,51.86
2016-06-15T12:07:34.943Z,52.05
2016-06-15T12:09:03.806Z,51.66
2016-06-15T12:10:13.434Z,51.59
2016-06-15T12:13:35.149Z,51.88
2016-06-15T12:14:22.450Z,51.78
2016-06-15T12:17:09.065Z,52.95
2016-06-15T12:17:47.427Z,53.31
2016-06-15T12:20:28.656Z,54.66
2016-06-15T12:21:03.078Z,53.72
2016-06-15T12:22:03.049Z,53.79
2016-06-15T12:23:18.290Z,54.57
2016-06-15T12:24:18.199Z,53.99
2016-06-15T12:25:30.968Z,52.44
2016-06-15T12:26:49.533Z,53.28
2016-06-15T12:27:46.255Z,53.25
2016-06-15T12:28:33.539Z,52.97
2016-06-15T12:31:14.499Z,55.65
2016-06-15T12:31:48.846Z,55.07
2016-06-15T12:34:29.793Z,55.26
2016-06-15T12:35:04.168Z,56.03
2016-06-15T12:36:04.171Z,54.77
2016-06-15T12:37:04.204Z,55.26
2016-06-15T12:38:04.489Z,55.93
2016-06-15T12:39:17.008Z,52.97
2016-06-15T12:40:04.292Z,53.06
2016-06-15T12:41:30.017Z,52.29
2016-06-15T12:42:04.360Z,52.67
2016-06-15T12:44:04.523Z,51.71
2016-06-15T12:44:45.339Z,50.65
2016-06-15T12:46:16.655Z,51.64
2016-06-15T12:47:26.301Z,52.31
2016-06-15T12:48:00.661Z,51.73
2016-06-15T12:49:00.741Z,51.86
2016-06-15T12:50:10.401Z,50.31
2016-06-15T12:51:41.704Z,50.89
2016-06-15T12:52:25.707Z,52.95
2016-06-15T12:53:25.757Z,53.23
2016-06-15T12:54:25.792Z,51.42
2016-06-15T12:55:25.653Z,49.97
2016-06-15T12:56:25.828Z,49.99
2016-06-15T12:57:33.534Z,49.44
2016-06-15T12:58:27.304Z,48.76
2016-06-15T12:59:51.573Z,48.76
2016-06-15T13:00:39.544Z,46.62
2016-06-15T13:01:39.594Z,47.2
2016-06-15T13:03:05.285Z,49.41
2016-06-15T13:04:17.866Z,48.08
2016-06-15T13:05:08.150Z,48.57
2016-06-15T13:06:36.422Z,46.53
2016-06-15T13:07:20.394Z,46.36
2016-06-15T13:08:39.647Z,46.45
2016-06-15T13:09:54.979Z,45.31
2016-06-15T13:10:33.449Z,44.92
2016-06-15T13:12:04.749Z,45.31
2016-06-15T13:12:43.113Z,45.14
2016-06-15T13:14:14.412Z,44.37
2016-06-15T13:14:46.166Z,45.34
2016-06-15T13:17:05.390Z,45.14
2016-06-15T13:17:46.237Z,45.84
2016-06-15T13:19:20.509Z,44
2016-06-15T13:20:14.290Z,42.64
2016-06-15T13:21:39.796Z,42.93
2016-06-15T13:22:17.655Z,42.44
2016-06-15T13:24:29.836Z,42.66
2016-06-15T13:25:29.762Z,41.2
2016-06-15T13:26:29.796Z,41.03
2016-06-15T13:27:29.846Z,39.57
2016-06-15T13:28:31.317Z,39.29
2016-06-15T13:29:31.305Z,39.59
2016-06-15T13:30:29.933Z,41.03
2016-06-15T13:31:42.686Z,39.67
2016-06-15T13:33:01.267Z,38.31
2016-06-15T13:33:58.833Z,38.21
2016-06-15T13:34:33.181Z,38.6
2016-06-15T13:36:07.651Z,39.28
2016-06-15T13:36:48.452Z,39.86
2016-06-15T13:37:48.565Z,38.6
2016-06-15T13:39:01.255Z,40.13
2016-06-15T13:39:48.413Z,41.08
2016-06-15T13:40:48.574Z,43.68
2016-06-15T13:41:48.608Z,46.55
2016-06-15T13:42:48.658Z,47.38
2016-06-15T13:43:48.692Z,48.79
2016-06-15T13:44:50.134Z,49.8
2016-06-15T13:45:48.745Z,50.93
2016-06-15T13:47:07.967Z,52.23
2016-06-15T13:48:08.033Z,52.89
2016-06-15T13:48:52.021Z,53.17
2016-06-15T13:50:11.258Z,53.34
2016-06-15T13:51:23.355Z,53.63
2016-06-15T13:52:33.001Z,53.83
2016-06-15T13:53:07.345Z,53.53
2016-06-15T13:55:22.679Z,54.79
2016-06-15T13:56:48.341Z,54.6
2016-06-15T13:57:22.701Z,54.79
2016-06-15T13:58:22.735Z,54.5
2016-06-15T13:59:32.382Z,54.88
2016-06-15T14:00:32.463Z,54.69
2016-06-15T14:01:35.450Z,54.79
2016-06-15T14:02:45.204Z,53.75
2016-06-15T14:03:45.222Z,54.43
2016-06-15T14:04:32.523Z,54.5
2016-06-15T14:05:32.682Z,54.6
2016-06-15T14:06:32.591Z,54.5
2016-06-15T14:07:35.688Z,54.88
2016-06-15T14:08:33.128Z,56.04
2016-06-15T14:09:51.835Z,57.1
2016-06-15T14:10:32.681Z,58.52
2016-06-15T14:12:51.032Z,62.06
2016-06-15T14:13:51.034Z,63.02
2016-06-15T14:14:51.069Z,63.5
2016-06-15T14:16:03.838Z,64.37
2016-06-15T14:16:51.247Z,66.69
2016-06-15T14:17:51.156Z,68.87
2016-06-15T14:18:51.175Z,70.18
2016-06-15T14:19:51.241Z,72.11